sensor_id;sensor_type;location;lat;lon;timestamp;temperature;humidity
69436;SHT31;56625;54.322;18.582;2023-05-19T00:00:08;7.14;77.55
69436;SHT31;56625;54.322;18.582;2023-05-19T00:03:01;7.12;77.62
69436;SHT31;56625;54.322;18.582;2023-05-19T00:05:31;7.09;77.72
69436;SHT31;56625;54.322;18.582;2023-05-19T00:07:59;7.06;77.72
69436;SHT31;56625;54.322;18.582;2023-05-19T00:10:30;7.02;77.79
69436;SHT31;56625;54.322;18.582;2023-05-19T00:13:00;7.01;77.85
69436;SHT31;56625;54.322;18.582;2023-05-19T00:15:28;6.98;77.98
69436;SHT31;56625;54.322;18.582;2023-05-19T00:17:57;6.94;78.10
69436;SHT31;56625;54.322;18.582;2023-05-19T00:20:25;6.91;78.25
69436;SHT31;56625;54.322;18.582;2023-05-19T00:22:53;6.86;78.41
69436;SHT31;56625;54.322;18.582;2023-05-19T00:25:21;6.83;78.61
69436;SHT31;56625;54.322;18.582;2023-05-19T00:27:49;6.81;78.84
69436;SHT31;56625;54.322;18.582;2023-05-19T00:30:17;6.80;79.07
69436;SHT31;56625;54.322;18.582;2023-05-19T00:32:45;6.77;79.22
69436;SHT31;56625;54.322;18.582;2023-05-19T00:35:12;6.73;79.22
69436;SHT31;56625;54.322;18.582;2023-05-19T00:37:40;6.70;79.19
69436;SHT31;56625;54.322;18.582;2023-05-19T00:40:08;6.67;79.20
69436;SHT31;56625;54.322;18.582;2023-05-19T00:42:37;6.64;79.26
69436;SHT31;56625;54.322;18.582;2023-05-19T00:45:05;6.61;79.29
69436;SHT31;56625;54.322;18.582;2023-05-19T00:47:34;6.58;79.32
69436;SHT31;56625;54.322;18.582;2023-05-19T00:50:02;6.58;79.40
69436;SHT31;56625;54.322;18.582;2023-05-19T00:52:30;6.57;79.49
69436;SHT31;56625;54.322;18.582;2023-05-19T00:54:58;6.54;79.69
69436;SHT31;56625;54.322;18.582;2023-05-19T00:57:26;6.48;80.09
69436;SHT31;56625;54.322;18.582;2023-05-19T00:59:55;6.44;80.53
69436;SHT31;56625;54.322;18.582;2023-05-19T01:02:23;6.41;80.61
69436;SHT31;56625;54.322;18.582;2023-05-19T01:04:51;6.39;80.79
69436;SHT31;56625;54.322;18.582;2023-05-19T01:07:20;6.39;80.98
69436;SHT31;56625;54.322;18.582;2023-05-19T01:09:48;6.35;80.98
69436;SHT31;56625;54.322;18.582;2023-05-19T01:12:16;6.32;81.30
69436;SHT31;56625;54.322;18.582;2023-05-19T01:14:44;6.28;81.42
69436;SHT31;56625;54.322;18.582;2023-05-19T01:20:01;6.30;81.51
69436;SHT31;56625;54.322;18.582;2023-05-19T01:31:36;6.23;81.66
69436;SHT31;56625;54.322;18.582;2023-05-19T01:34:07;6.24;81.65
69436;SHT31;56625;54.322;18.582;2023-05-19T01:36:40;6.26;81.65
69436;SHT31;56625;54.322;18.582;2023-05-19T01:39:11;6.29;81.63
69436;SHT31;56625;54.322;18.582;2023-05-19T01:41:40;6.32;81.60
69436;SHT31;56625;54.322;18.582;2023-05-19T01:44:10;6.36;81.58
69436;SHT31;56625;54.322;18.582;2023-05-19T01:46:38;6.41;81.59
69436;SHT31;56625;54.322;18.582;2023-05-19T01:49:08;6.45;81.43
69436;SHT31;56625;54.322;18.582;2023-05-19T01:51:36;6.48;81.40
69436;SHT31;56625;54.322;18.582;2023-05-19T01:54:04;6.49;81.38
69436;SHT31;56625;54.322;18.582;2023-05-19T01:59:23;6.52;81.88
69436;SHT31;56625;54.322;18.582;2023-05-19T02:02:24;6.54;81.96
69436;SHT31;56625;54.322;18.582;2023-05-19T02:05:12;6.55;81.83
69436;SHT31;56625;54.322;18.582;2023-05-19T02:07:51;6.57;81.82
69436;SHT31;56625;54.322;18.582;2023-05-19T02:10:37;6.55;81.76
69436;SHT31;56625;54.322;18.582;2023-05-19T02:13:11;6.55;81.88
69436;SHT31;56625;54.322;18.582;2023-05-19T02:15:41;6.60;82.18
69436;SHT31;56625;54.322;18.582;2023-05-19T02:18:11;6.66;82.38
69436;SHT31;56625;54.322;18.582;2023-05-19T02:20:44;6.75;82.62
69436;SHT31;56625;54.322;18.582;2023-05-19T02:23:12;6.82;82.48
69436;SHT31;56625;54.322;18.582;2023-05-19T02:25:40;6.86;82.17
69436;SHT31;56625;54.322;18.582;2023-05-19T02:28:08;6.90;82.16
69436;SHT31;56625;54.322;18.582;2023-05-19T02:30:36;6.94;81.95
69436;SHT31;56625;54.322;18.582;2023-05-19T02:33:04;6.99;81.74
69436;SHT31;56625;54.322;18.582;2023-05-19T02:35:33;7.01;81.55
69436;SHT31;56625;54.322;18.582;2023-05-19T02:38:01;7.03;81.52
69436;SHT31;56625;54.322;18.582;2023-05-19T02:40:28;7.07;81.52
69436;SHT31;56625;54.322;18.582;2023-05-19T02:42:57;7.12;81.52
69436;SHT31;56625;54.322;18.582;2023-05-19T02:45:24;7.15;81.34
69436;SHT31;56625;54.322;18.582;2023-05-19T02:47:55;7.19;81.20
69436;SHT31;56625;54.322;18.582;2023-05-19T02:50:23;7.20;80.98
69436;SHT31;56625;54.322;18.582;2023-05-19T02:52:51;7.22;80.86
69436;SHT31;56625;54.322;18.582;2023-05-19T02:55:20;7.24;80.64
69436;SHT31;56625;54.322;18.582;2023-05-19T02:57:48;7.26;80.54
69436;SHT31;56625;54.322;18.582;2023-05-19T03:00:16;7.30;80.44
69436;SHT31;56625;54.322;18.582;2023-05-19T03:02:44;7.33;80.34
69436;SHT31;56625;54.322;18.582;2023-05-19T03:05:12;7.36;80.24
69436;SHT31;56625;54.322;18.582;2023-05-19T03:07:40;7.41;80.18
69436;SHT31;56625;54.322;18.582;2023-05-19T03:10:08;7.46;80.06
69436;SHT31;56625;54.322;18.582;2023-05-19T03:12:36;7.52;79.91
69436;SHT31;56625;54.322;18.582;2023-05-19T03:15:04;7.53;79.80
69436;SHT31;56625;54.322;18.582;2023-05-19T03:17:33;7.58;79.76
69436;SHT31;56625;54.322;18.582;2023-05-19T03:20:02;7.60;79.65
69436;SHT31;56625;54.322;18.582;2023-05-19T03:22:32;7.63;79.63
69436;SHT31;56625;54.322;18.582;2023-05-19T03:25:00;7.68;79.61
69436;SHT31;56625;54.322;18.582;2023-05-19T03:27:28;7.72;79.59
69436;SHT31;56625;54.322;18.582;2023-05-19T03:29:56;7.77;79.60
69436;SHT31;56625;54.322;18.582;2023-05-19T03:32:24;7.84;79.62
69436;SHT31;56625;54.322;18.582;2023-05-19T03:34:52;7.91;79.57
69436;SHT31;56625;54.322;18.582;2023-05-19T03:37:20;8.01;79.61
69436;SHT31;56625;54.322;18.582;2023-05-19T03:39:48;8.09;79.43
69436;SHT31;56625;54.322;18.582;2023-05-19T03:42:16;8.18;79.35
69436;SHT31;56625;54.322;18.582;2023-05-19T03:44:43;8.26;79.39
69436;SHT31;56625;54.322;18.582;2023-05-19T03:47:12;8.38;79.40
69436;SHT31;56625;54.322;18.582;2023-05-19T03:49:40;8.50;79.16
69436;SHT31;56625;54.322;18.582;2023-05-19T03:52:08;8.63;78.96
69436;SHT31;56625;54.322;18.582;2023-05-19T03:54:36;8.77;78.72
69436;SHT31;56625;54.322;18.582;2023-05-19T03:57:06;8.90;78.29
69436;SHT31;56625;54.322;18.582;2023-05-19T03:59:37;9.01;77.90
69436;SHT31;56625;54.322;18.582;2023-05-19T04:02:07;9.12;77.67
69436;SHT31;56625;54.322;18.582;2023-05-19T04:04:36;9.25;77.37
69436;SHT31;56625;54.322;18.582;2023-05-19T04:07:04;9.35;76.73
69436;SHT31;56625;54.322;18.582;2023-05-19T04:09:33;9.44;76.21
69436;SHT31;56625;54.322;18.582;2023-05-19T04:12:02;9.51;75.77
69436;SHT31;56625;54.322;18.582;2023-05-19T04:14:30;9.59;75.63
69436;SHT31;56625;54.322;18.582;2023-05-19T04:16:57;9.65;74.79
69436;SHT31;56625;54.322;18.582;2023-05-19T04:19:26;9.71;74.56
69436;SHT31;56625;54.322;18.582;2023-05-19T04:21:54;9.76;74.35
69436;SHT31;56625;54.322;18.582;2023-05-19T04:24:23;9.82;74.15
69436;SHT31;56625;54.322;18.582;2023-05-19T04:26:51;9.88;73.82
69436;SHT31;56625;54.322;18.582;2023-05-19T04:29:20;9.94;73.38
69436;SHT31;56625;54.322;18.582;2023-05-19T04:31:49;9.98;73.26
69436;SHT31;56625;54.322;18.582;2023-05-19T04:34:19;10.04;72.97
69436;SHT31;56625;54.322;18.582;2023-05-19T04:36:47;10.12;72.89
69436;SHT31;56625;54.322;18.582;2023-05-19T04:39:18;10.17;72.46
69436;SHT31;56625;54.322;18.582;2023-05-19T04:41:48;10.20;71.76
69436;SHT31;56625;54.322;18.582;2023-05-19T04:44:15;10.22;71.49
69436;SHT31;56625;54.322;18.582;2023-05-19T04:46:44;10.28;71.52
69436;SHT31;56625;54.322;18.582;2023-05-19T04:49:12;10.33;71.56
69436;SHT31;56625;54.322;18.582;2023-05-19T04:51:41;10.37;71.36
69436;SHT31;56625;54.322;18.582;2023-05-19T04:54:09;10.44;71.54
69436;SHT31;56625;54.322;18.582;2023-05-19T04:56:37;10.51;71.37
69436;SHT31;56625;54.322;18.582;2023-05-19T04:59:05;10.58;71.14
69436;SHT31;56625;54.322;18.582;2023-05-19T05:01:33;10.62;70.75
69436;SHT31;56625;54.322;18.582;2023-05-19T05:04:01;10.65;70.68
69436;SHT31;56625;54.322;18.582;2023-05-19T05:06:30;10.70;70.69
69436;SHT31;56625;54.322;18.582;2023-05-19T05:08:58;10.77;70.73
69436;SHT31;56625;54.322;18.582;2023-05-19T05:11:30;10.82;70.54
69436;SHT31;56625;54.322;18.582;2023-05-19T05:13:59;10.90;70.65
69436;SHT31;56625;54.322;18.582;2023-05-19T05:16:27;11.01;70.30
69436;SHT31;56625;54.322;18.582;2023-05-19T05:18:55;11.06;69.87
69436;SHT31;56625;54.322;18.582;2023-05-19T05:21:24;11.10;69.87
69436;SHT31;56625;54.322;18.582;2023-05-19T05:23:53;11.12;69.86
69436;SHT31;56625;54.322;18.582;2023-05-19T05:26:22;11.16;69.61
69436;SHT31;56625;54.322;18.582;2023-05-19T05:28:56;11.23;69.78
69436;SHT31;56625;54.322;18.582;2023-05-19T05:31:24;11.31;69.57
69436;SHT31;56625;54.322;18.582;2023-05-19T05:33:52;11.37;69.54
69436;SHT31;56625;54.322;18.582;2023-05-19T05:36:20;11.45;69.92
69436;SHT31;56625;54.322;18.582;2023-05-19T05:38:48;11.56;69.77
69436;SHT31;56625;54.322;18.582;2023-05-19T05:41:16;11.61;69.13
69436;SHT31;56625;54.322;18.582;2023-05-19T05:43:43;11.67;69.42
69436;SHT31;56625;54.322;18.582;2023-05-19T05:46:11;11.81;69.11
69436;SHT31;56625;54.322;18.582;2023-05-19T05:48:40;11.86;68.40
69436;SHT31;56625;54.322;18.582;2023-05-19T05:51:09;11.92;68.77
69436;SHT31;56625;54.322;18.582;2023-05-19T05:53:39;12.03;68.13
69436;SHT31;56625;54.322;18.582;2023-05-19T05:56:11;12.09;67.61
69436;SHT31;56625;54.322;18.582;2023-05-19T05:58:40;12.11;67.16
69436;SHT31;56625;54.322;18.582;2023-05-19T06:01:10;12.04;67.01
69436;SHT31;56625;54.322;18.582;2023-05-19T06:03:38;11.99;67.28
69436;SHT31;56625;54.322;18.582;2023-05-19T06:06:09;12.00;67.63
69436;SHT31;56625;54.322;18.582;2023-05-19T06:08:38;11.98;67.51
69436;SHT31;56625;54.322;18.582;2023-05-19T06:11:06;11.96;67.88
69436;SHT31;56625;54.322;18.582;2023-05-19T06:13:37;12.02;68.05
69436;SHT31;56625;54.322;18.582;2023-05-19T06:16:08;12.07;67.77
69436;SHT31;56625;54.322;18.582;2023-05-19T06:18:36;12.12;67.94
69436;SHT31;56625;54.322;18.582;2023-05-19T06:21:04;12.18;68.13
69436;SHT31;56625;54.322;18.582;2023-05-19T06:23:32;12.25;68.31
69436;SHT31;56625;54.322;18.582;2023-05-19T06:26:00;12.33;68.41
69436;SHT31;56625;54.322;18.582;2023-05-19T06:28:28;12.43;68.34
69436;SHT31;56625;54.322;18.582;2023-05-19T06:30:56;12.58;68.28
69436;SHT31;56625;54.322;18.582;2023-05-19T06:33:25;12.67;67.94
69436;SHT31;56625;54.322;18.582;2023-05-19T06:35:55;12.72;67.92
69436;SHT31;56625;54.322;18.582;2023-05-19T06:38:23;12.79;67.89
69436;SHT31;56625;54.322;18.582;2023-05-19T06:40:51;12.91;67.73
69436;SHT31;56625;54.322;18.582;2023-05-19T06:43:19;13.02;67.31
69436;SHT31;56625;54.322;18.582;2023-05-19T06:45:47;13.15;67.37
69436;SHT31;56625;54.322;18.582;2023-05-19T06:48:15;13.25;66.61
69436;SHT31;56625;54.322;18.582;2023-05-19T06:50:43;13.25;66.59
69436;SHT31;56625;54.322;18.582;2023-05-19T06:53:11;13.25;66.27
69436;SHT31;56625;54.322;18.582;2023-05-19T06:55:39;13.26;66.12
69436;SHT31;56625;54.322;18.582;2023-05-19T06:58:25;13.28;66.40
69436;SHT31;56625;54.322;18.582;2023-05-19T07:00:53;13.34;66.83
69436;SHT31;56625;54.322;18.582;2023-05-19T07:03:21;13.46;66.25
69436;SHT31;56625;54.322;18.582;2023-05-19T07:05:49;13.41;65.68
69436;SHT31;56625;54.322;18.582;2023-05-19T07:08:17;13.37;66.46
69436;SHT31;56625;54.322;18.582;2023-05-19T07:10:45;13.40;66.34
69436;SHT31;56625;54.322;18.582;2023-05-19T07:13:13;13.49;66.47
69436;SHT31;56625;54.322;18.582;2023-05-19T07:15:41;13.60;66.00
69436;SHT31;56625;54.322;18.582;2023-05-19T07:18:09;13.67;65.27
69436;SHT31;56625;54.322;18.582;2023-05-19T07:20:37;13.79;65.14
69436;SHT31;56625;54.322;18.582;2023-05-19T07:23:04;13.95;64.71
69436;SHT31;56625;54.322;18.582;2023-05-19T07:25:33;14.03;63.10
69436;SHT31;56625;54.322;18.582;2023-05-19T07:28:01;14.01;62.92
69436;SHT31;56625;54.322;18.582;2023-05-19T07:30:28;13.96;63.16
69436;SHT31;56625;54.322;18.582;2023-05-19T07:32:57;13.98;62.87
69436;SHT31;56625;54.322;18.582;2023-05-19T07:35:25;13.93;62.71
69436;SHT31;56625;54.322;18.582;2023-05-19T07:37:53;13.84;62.74
69436;SHT31;56625;54.322;18.582;2023-05-19T07:40:21;13.68;61.58
69436;SHT31;56625;54.322;18.582;2023-05-19T07:42:49;13.59;62.37
69436;SHT31;56625;54.322;18.582;2023-05-19T07:45:19;13.56;63.16
69436;SHT31;56625;54.322;18.582;2023-05-19T07:47:47;13.65;62.85
69436;SHT31;56625;54.322;18.582;2023-05-19T07:50:19;13.69;62.08
69436;SHT31;56625;54.322;18.582;2023-05-19T07:52:47;13.66;61.62
69436;SHT31;56625;54.322;18.582;2023-05-19T07:55:15;13.66;62.13
69436;SHT31;56625;54.322;18.582;2023-05-19T07:57:43;13.69;61.96
69436;SHT31;56625;54.322;18.582;2023-05-19T08:00:11;13.70;61.22
69436;SHT31;56625;54.322;18.582;2023-05-19T08:02:40;13.72;61.01
69436;SHT31;56625;54.322;18.582;2023-05-19T08:05:08;13.77;61.40
69436;SHT31;56625;54.322;18.582;2023-05-19T08:07:37;13.84;61.74
69436;SHT31;56625;54.322;18.582;2023-05-19T08:10:05;13.90;60.90
69436;SHT31;56625;54.322;18.582;2023-05-19T08:12:33;13.91;61.50
69436;SHT31;56625;54.322;18.582;2023-05-19T08:15:01;13.99;61.37
69436;SHT31;56625;54.322;18.582;2023-05-19T08:17:30;13.97;60.36
69436;SHT31;56625;54.322;18.582;2023-05-19T08:19:58;13.93;59.78
69436;SHT31;56625;54.322;18.582;2023-05-19T08:22:26;13.91;60.33
69436;SHT31;56625;54.322;18.582;2023-05-19T08:24:54;13.90;60.28
69436;SHT31;56625;54.322;18.582;2023-05-19T08:27:23;13.88;60.09
69436;SHT31;56625;54.322;18.582;2023-05-19T08:29:51;13.85;60.77
69436;SHT31;56625;54.322;18.582;2023-05-19T08:32:19;13.78;61.04
69436;SHT31;56625;54.322;18.582;2023-05-19T08:34:47;13.78;61.48
69436;SHT31;56625;54.322;18.582;2023-05-19T08:37:15;13.80;61.35
69436;SHT31;56625;54.322;18.582;2023-05-19T08:39:43;13.83;61.41
69436;SHT31;56625;54.322;18.582;2023-05-19T08:42:11;13.86;61.40
69436;SHT31;56625;54.322;18.582;2023-05-19T08:44:39;13.83;61.07
69436;SHT31;56625;54.322;18.582;2023-05-19T08:47:08;13.82;61.57
69436;SHT31;56625;54.322;18.582;2023-05-19T08:49:44;13.88;61.48
69436;SHT31;56625;54.322;18.582;2023-05-19T08:52:20;13.91;61.31
69436;SHT31;56625;54.322;18.582;2023-05-19T08:58:03;13.94;61.11
69436;SHT31;56625;54.322;18.582;2023-05-19T09:00:33;13.97;61.19
69436;SHT31;56625;54.322;18.582;2023-05-19T09:03:02;13.96;61.46
69436;SHT31;56625;54.322;18.582;2023-05-19T09:05:44;13.95;61.69
69436;SHT31;56625;54.322;18.582;2023-05-19T09:08:14;13.94;61.63
69436;SHT31;56625;54.322;18.582;2023-05-19T09:10:42;13.96;61.60
69436;SHT31;56625;54.322;18.582;2023-05-19T09:13:10;13.96;61.56
69436;SHT31;56625;54.322;18.582;2023-05-19T09:15:38;13.93;61.12
69436;SHT31;56625;54.322;18.582;2023-05-19T09:18:10;13.85;61.11
69436;SHT31;56625;54.322;18.582;2023-05-19T09:20:43;13.79;61.44
69436;SHT31;56625;54.322;18.582;2023-05-19T09:23:13;13.77;60.95
69436;SHT31;56625;54.322;18.582;2023-05-19T09:30:57;13.92;61.35
69436;SHT31;56625;54.322;18.582;2023-05-19T09:33:27;14.01;61.60
69436;SHT31;56625;54.322;18.582;2023-05-19T09:35:56;14.06;61.59
69436;SHT31;56625;54.322;18.582;2023-05-19T09:38:24;14.14;61.84
69436;SHT31;56625;54.322;18.582;2023-05-19T09:40:58;14.18;61.59
69436;SHT31;56625;54.322;18.582;2023-05-19T09:43:27;14.16;60.50
69436;SHT31;56625;54.322;18.582;2023-05-19T09:45:59;14.18;60.66
69436;SHT31;56625;54.322;18.582;2023-05-19T09:48:35;14.13;59.89
69436;SHT31;56625;54.322;18.582;2023-05-19T09:51:04;14.10;60.53
69436;SHT31;56625;54.322;18.582;2023-05-19T09:53:37;14.07;59.94
69436;SHT31;56625;54.322;18.582;2023-05-19T09:56:05;14.00;60.74
69436;SHT31;56625;54.322;18.582;2023-05-19T09:58:36;14.01;60.83
69436;SHT31;56625;54.322;18.582;2023-05-19T10:01:09;13.92;60.53
69436;SHT31;56625;54.322;18.582;2023-05-19T10:03:38;13.89;61.08
69436;SHT31;56625;54.322;18.582;2023-05-19T10:06:08;13.93;61.50
69436;SHT31;56625;54.322;18.582;2023-05-19T10:08:36;14.01;60.68
69436;SHT31;56625;54.322;18.582;2023-05-19T10:11:06;14.03;60.56
69436;SHT31;56625;54.322;18.582;2023-05-19T10:13:36;14.03;59.98
69436;SHT31;56625;54.322;18.582;2023-05-19T10:16:06;14.03;60.12
69436;SHT31;56625;54.322;18.582;2023-05-19T10:18:36;14.07;60.26
69436;SHT31;56625;54.322;18.582;2023-05-19T10:21:06;14.05;60.31
69436;SHT31;56625;54.322;18.582;2023-05-19T10:23:36;14.06;60.57
69436;SHT31;56625;54.322;18.582;2023-05-19T10:26:04;14.02;59.70
69436;SHT31;56625;54.322;18.582;2023-05-19T10:28:36;13.93;59.62
69436;SHT31;56625;54.322;18.582;2023-05-19T10:31:08;13.79;59.38
69436;SHT31;56625;54.322;18.582;2023-05-19T10:37:16;13.56;60.32
69436;SHT31;56625;54.322;18.582;2023-05-19T10:40:08;13.44;60.51
69436;SHT31;56625;54.322;18.582;2023-05-19T10:43:01;13.45;60.82
69436;SHT31;56625;54.322;18.582;2023-05-19T10:45:52;13.42;60.76
69436;SHT31;56625;54.322;18.582;2023-05-19T10:48:21;13.41;60.82
69436;SHT31;56625;54.322;18.582;2023-05-19T10:50:52;13.38;60.39
69436;SHT31;56625;54.322;18.582;2023-05-19T10:53:26;13.32;60.53
69436;SHT31;56625;54.322;18.582;2023-05-19T10:56:02;13.34;60.70
69436;SHT31;56625;54.322;18.582;2023-05-19T11:01:17;13.35;60.64
69436;SHT31;56625;54.322;18.582;2023-05-19T11:06:31;13.42;60.06
69436;SHT31;56625;54.322;18.582;2023-05-19T11:11:52;13.39;59.23
69436;SHT31;56625;54.322;18.582;2023-05-19T11:14:22;13.33;59.13
69436;SHT31;56625;54.322;18.582;2023-05-19T11:16:57;13.29;59.03
69436;SHT31;56625;54.322;18.582;2023-05-19T11:19:31;13.29;59.10
69436;SHT31;56625;54.322;18.582;2023-05-19T11:22:11;13.30;59.01
69436;SHT31;56625;54.322;18.582;2023-05-19T11:24:44;13.33;58.75
69436;SHT31;56625;54.322;18.582;2023-05-19T11:32:33;13.32;57.04
69436;SHT31;56625;54.322;18.582;2023-05-19T11:35:06;13.35;57.10
69436;SHT31;56625;54.322;18.582;2023-05-19T11:37:35;13.37;56.67
69436;SHT31;56625;54.322;18.582;2023-05-19T11:40:03;13.35;56.35
69436;SHT31;56625;54.322;18.582;2023-05-19T11:42:34;13.35;55.99
69436;SHT31;56625;54.322;18.582;2023-05-19T11:45:04;13.35;56.20
69436;SHT31;56625;54.322;18.582;2023-05-19T11:47:34;13.36;55.98
69436;SHT31;56625;54.322;18.582;2023-05-19T11:50:23;13.37;56.31
69436;SHT31;56625;54.322;18.582;2023-05-19T11:52:53;13.45;56.41
69436;SHT31;56625;54.322;18.582;2023-05-19T11:55:22;13.54;55.97
69436;SHT31;56625;54.322;18.582;2023-05-19T11:57:58;13.60;55.82
69436;SHT31;56625;54.322;18.582;2023-05-19T12:00:36;13.70;54.99
69436;SHT31;56625;54.322;18.582;2023-05-19T12:03:07;13.72;55.05
69436;SHT31;56625;54.322;18.582;2023-05-19T12:05:37;13.73;55.18
69436;SHT31;56625;54.322;18.582;2023-05-19T12:08:11;13.72;55.65
69436;SHT31;56625;54.322;18.582;2023-05-19T12:10:39;13.77;55.86
69436;SHT31;56625;54.322;18.582;2023-05-19T12:13:07;13.78;55.67
69436;SHT31;56625;54.322;18.582;2023-05-19T12:15:37;13.82;56.18
69436;SHT31;56625;54.322;18.582;2023-05-19T12:18:06;13.86;56.00
69436;SHT31;56625;54.322;18.582;2023-05-19T12:20:34;13.90;55.95
69436;SHT31;56625;54.322;18.582;2023-05-19T12:23:03;13.91;55.57
69436;SHT31;56625;54.322;18.582;2023-05-19T12:25:31;13.95;56.21
69436;SHT31;56625;54.322;18.582;2023-05-19T12:28:00;13.95;56.15
69436;SHT31;56625;54.322;18.582;2023-05-19T12:30:32;13.98;56.46
69436;SHT31;56625;54.322;18.582;2023-05-19T12:33:01;14.05;56.85
69436;SHT31;56625;54.322;18.582;2023-05-19T12:35:30;14.07;56.81
69436;SHT31;56625;54.322;18.582;2023-05-19T12:38:03;14.07;57.68
69436;SHT31;56625;54.322;18.582;2023-05-19T12:40:33;14.14;58.29
69436;SHT31;56625;54.322;18.582;2023-05-19T12:43:03;14.18;57.93
69436;SHT31;56625;54.322;18.582;2023-05-19T12:45:35;14.15;57.52
69436;SHT31;56625;54.322;18.582;2023-05-19T12:48:09;14.09;57.34
69436;SHT31;56625;54.322;18.582;2023-05-19T12:50:39;14.11;58.10
69436;SHT31;56625;54.322;18.582;2023-05-19T12:53:07;14.19;58.76
69436;SHT31;56625;54.322;18.582;2023-05-19T12:55:41;14.27;58.70
69436;SHT31;56625;54.322;18.582;2023-05-19T12:58:12;14.32;59.09
69436;SHT31;56625;54.322;18.582;2023-05-19T13:00:43;14.37;59.09
69436;SHT31;56625;54.322;18.582;2023-05-19T13:03:14;14.40;59.74
69436;SHT31;56625;54.322;18.582;2023-05-19T13:05:48;14.41;59.75
69436;SHT31;56625;54.322;18.582;2023-05-19T13:08:20;14.45;60.06
69436;SHT31;56625;54.322;18.582;2023-05-19T13:10:50;14.46;60.22
69436;SHT31;56625;54.322;18.582;2023-05-19T13:13:18;14.51;60.58
69436;SHT31;56625;54.322;18.582;2023-05-19T13:15:46;14.53;60.75
69436;SHT31;56625;54.322;18.582;2023-05-19T13:18:15;14.55;60.74
69436;SHT31;56625;54.322;18.582;2023-05-19T13:20:45;14.58;61.10
69436;SHT31;56625;54.322;18.582;2023-05-19T13:23:15;14.58;60.74
69436;SHT31;56625;54.322;18.582;2023-05-19T13:25:44;14.55;61.00
69436;SHT31;56625;54.322;18.582;2023-05-19T13:28:12;14.51;61.14
69436;SHT31;56625;54.322;18.582;2023-05-19T13:30:41;14.46;61.54
69436;SHT31;56625;54.322;18.582;2023-05-19T13:33:10;14.44;61.88
69436;SHT31;56625;54.322;18.582;2023-05-19T13:35:38;14.45;62.21
69436;SHT31;56625;54.322;18.582;2023-05-19T13:38:07;14.39;62.32
69436;SHT31;56625;54.322;18.582;2023-05-19T13:40:37;14.35;63.07
69436;SHT31;56625;54.322;18.582;2023-05-19T13:43:06;14.34;64.25
69436;SHT31;56625;54.322;18.582;2023-05-19T13:45:35;14.19;64.03
69436;SHT31;56625;54.322;18.582;2023-05-19T13:48:04;14.02;65.22
69436;SHT31;56625;54.322;18.582;2023-05-19T13:50:34;13.95;66.18
69436;SHT31;56625;54.322;18.582;2023-05-19T13:53:02;13.93;65.71
69436;SHT31;56625;54.322;18.582;2023-05-19T13:55:31;14.00;65.98
69436;SHT31;56625;54.322;18.582;2023-05-19T13:57:59;14.08;66.35
69436;SHT31;56625;54.322;18.582;2023-05-19T14:00:27;14.15;66.38
69436;SHT31;56625;54.322;18.582;2023-05-19T14:02:55;14.22;65.65
69436;SHT31;56625;54.322;18.582;2023-05-19T14:05:23;14.19;65.26
69436;SHT31;56625;54.322;18.582;2023-05-19T14:07:51;14.15;65.52
69436;SHT31;56625;54.322;18.582;2023-05-19T14:10:20;14.10;66.05
69436;SHT31;56625;54.322;18.582;2023-05-19T14:12:47;14.03;66.72
69436;SHT31;56625;54.322;18.582;2023-05-19T14:15:35;14.00;66.63
69436;SHT31;56625;54.322;18.582;2023-05-19T14:18:04;13.92;66.80
69436;SHT31;56625;54.322;18.582;2023-05-19T14:20:33;13.84;66.95
69436;SHT31;56625;54.322;18.582;2023-05-19T14:23:02;13.72;67.28
69436;SHT31;56625;54.322;18.582;2023-05-19T14:25:30;13.58;67.87
69436;SHT31;56625;54.322;18.582;2023-05-19T14:27:58;13.49;68.46
69436;SHT31;56625;54.322;18.582;2023-05-19T14:30:26;13.39;68.87
69436;SHT31;56625;54.322;18.582;2023-05-19T14:32:54;13.30;69.08
69436;SHT31;56625;54.322;18.582;2023-05-19T14:35:23;13.17;69.61
69436;SHT31;56625;54.322;18.582;2023-05-19T14:37:52;13.04;70.03
69436;SHT31;56625;54.322;18.582;2023-05-19T14:40:20;12.95;70.48
69436;SHT31;56625;54.322;18.582;2023-05-19T14:42:48;12.84;70.40
69436;SHT31;56625;54.322;18.582;2023-05-19T14:45:18;12.76;70.19
69436;SHT31;56625;54.322;18.582;2023-05-19T14:47:47;12.80;71.26
69436;SHT31;56625;54.322;18.582;2023-05-19T14:50:15;12.73;70.74
69436;SHT31;56625;54.322;18.582;2023-05-19T14:52:45;12.59;70.91
69436;SHT31;56625;54.322;18.582;2023-05-19T14:55:13;12.45;71.64
69436;SHT31;56625;54.322;18.582;2023-05-19T14:57:43;12.35;72.38
69436;SHT31;56625;54.322;18.582;2023-05-19T15:00:13;12.30;72.87
69436;SHT31;56625;54.322;18.582;2023-05-19T15:02:42;12.33;73.22
69436;SHT31;56625;54.322;18.582;2023-05-19T15:05:13;12.34;73.66
69436;SHT31;56625;54.322;18.582;2023-05-19T15:07:42;12.35;73.83
69436;SHT31;56625;54.322;18.582;2023-05-19T15:10:18;12.40;74.05
69436;SHT31;56625;54.322;18.582;2023-05-19T15:12:50;12.43;74.15
69436;SHT31;56625;54.322;18.582;2023-05-19T15:15:27;12.44;74.09
69436;SHT31;56625;54.322;18.582;2023-05-19T15:17:55;12.47;73.86
69436;SHT31;56625;54.322;18.582;2023-05-19T15:20:23;12.55;73.81
69436;SHT31;56625;54.322;18.582;2023-05-19T15:22:55;12.64;73.81
69436;SHT31;56625;54.322;18.582;2023-05-19T15:25:24;12.73;73.64
69436;SHT31;56625;54.322;18.582;2023-05-19T15:27:52;12.82;73.59
69436;SHT31;56625;54.322;18.582;2023-05-19T15:30:23;12.90;73.36
69436;SHT31;56625;54.322;18.582;2023-05-19T15:32:51;12.95;73.06
69436;SHT31;56625;54.322;18.582;2023-05-19T15:35:19;12.98;73.07
69436;SHT31;56625;54.322;18.582;2023-05-19T15:37:49;12.99;73.33
69436;SHT31;56625;54.322;18.582;2023-05-19T15:40:20;13.00;73.50
69436;SHT31;56625;54.322;18.582;2023-05-19T15:42:51;13.01;73.66
69436;SHT31;56625;54.322;18.582;2023-05-19T15:45:25;13.04;73.68
69436;SHT31;56625;54.322;18.582;2023-05-19T15:47:53;13.05;73.83
69436;SHT31;56625;54.322;18.582;2023-05-19T15:50:23;13.07;74.06
69436;SHT31;56625;54.322;18.582;2023-05-19T15:52:53;13.08;74.04
69436;SHT31;56625;54.322;18.582;2023-05-19T15:55:21;13.10;74.14
69436;SHT31;56625;54.322;18.582;2023-05-19T15:57:49;13.14;73.92
69436;SHT31;56625;54.322;18.582;2023-05-19T16:00:20;13.12;73.97
69436;SHT31;56625;54.322;18.582;2023-05-19T16:02:54;13.08;74.06
69436;SHT31;56625;54.322;18.582;2023-05-19T16:05:25;13.05;73.94
69436;SHT31;56625;54.322;18.582;2023-05-19T16:07:55;12.99;73.90
69436;SHT31;56625;54.322;18.582;2023-05-19T16:10:45;12.98;74.07
69436;SHT31;56625;54.322;18.582;2023-05-19T16:13:19;13.04;74.08
69436;SHT31;56625;54.322;18.582;2023-05-19T16:15:55;13.07;74.09